DLH9KK EDDB-EDDF
Flight info
| Callsign | DLH9KK |
|---|---|
| Flight time | 0h 42m |
| Altitude | 23000 |
| Route | KISUC1N KISUC Z117 ODLUN/N0400F240 DCT ORTAG/N0389F220 T177 ODIPI/N0382F210 T157 KERAX KERAX5A |
| Aircraft | A321/M-SDE3FGHIRWY/LB1 |
Departure
| Time | 2026-04-17 09:42 |
|---|---|
| Airport | Berlin Brandenburg Airport (EDDB) |
Arrival
| Time | 2026-04-17 10:25 |
|---|---|
| Airport | Frankfurt Main Airport (EDDF) |
| Time | Latitude | Longitude | Altitude | Speed | Heading |
|---|---|---|---|---|---|
| 2026-04-17 09:11 | 52.35835 | 13.49944 | 155 ft | 0 kts | 249° |
| 2026-04-17 09:32 | 52.35840 | 13.49966 | 154 ft | 3 kts | 243° |
| 2026-04-17 09:32 | 52.35852 | 13.49996 | 154 ft | 3 kts | 224° |
| 2026-04-17 09:32 | 52.35869 | 13.50016 | 154 ft | 3 kts | 189° |
| 2026-04-17 09:32 | 52.35881 | 13.50017 | 154 ft | 2 kts | 160° |
| 2026-04-17 09:33 | 52.35883 | 13.50016 | 154 ft | 0 kts | 159° |
| 2026-04-17 09:37 | 52.35877 | 13.50019 | 154 ft | 2 kts | 159° |
| 2026-04-17 09:37 | 52.35858 | 13.50031 | 154 ft | 4 kts | 159° |
| 2026-04-17 09:37 | 52.35827 | 13.50051 | 154 ft | 6 kts | 159° |
| 2026-04-17 09:38 | 52.35784 | 13.50078 | 154 ft | 8 kts | 159° |
| 2026-04-17 09:38 | 52.35729 | 13.50113 | 154 ft | 9 kts | 159° |
| 2026-04-17 09:38 | 52.35680 | 13.50180 | 154 ft | 10 kts | 106° |
| 2026-04-17 09:38 | 52.35697 | 13.50301 | 154 ft | 12 kts | 69° |
| 2026-04-17 09:39 | 52.35732 | 13.50453 | 155 ft | 20 kts | 69° |
| 2026-04-17 09:39 | 52.35796 | 13.50722 | 155 ft | 29 kts | 69° |
| 2026-04-17 09:39 | 52.35870 | 13.51030 | 155 ft | 29 kts | 68° |
| 2026-04-17 09:39 | 52.35944 | 13.51343 | 155 ft | 30 kts | 68° |
| 2026-04-17 09:40 | 52.36019 | 13.51655 | 155 ft | 29 kts | 69° |
| 2026-04-17 09:40 | 52.36088 | 13.51952 | 155 ft | 16 kts | 69° |
| 2026-04-17 09:40 | 52.36109 | 13.52076 | 155 ft | 11 kts | 96° |
| 2026-04-17 09:40 | 52.36051 | 13.52150 | 155 ft | 12 kts | 158° |
| 2026-04-17 09:41 | 52.35970 | 13.52201 | 155 ft | 13 kts | 159° |
| 2026-04-17 09:41 | 52.35877 | 13.52253 | 155 ft | 15 kts | 173° |
| 2026-04-17 09:41 | 52.35803 | 13.52152 | 155 ft | 16 kts | 249° |
| 2026-04-17 09:41 | 52.35716 | 13.51780 | 155 ft | 71 kts | 249° |
| 2026-04-17 09:42 | 52.35449 | 13.50655 | 155 ft | 140 kts | 249° |
| 2026-04-17 09:42 | 52.35040 | 13.48932 | 423 ft | 168 kts | 252° |
| 2026-04-17 09:42 | 52.34605 | 13.47161 | 1183 ft | 168 kts | 251° |
| 2026-04-17 09:42 | 52.34116 | 13.45355 | 1799 ft | 184 kts | 241° |
| 2026-04-17 09:43 | 52.33255 | 13.43643 | 2097 ft | 207 kts | 229° |
| 2026-04-17 09:43 | 52.32251 | 13.41812 | 2386 ft | 226 kts | 230° |
| 2026-04-17 09:43 | 52.31188 | 13.39850 | 2936 ft | 234 kts | 230° |
| 2026-04-17 09:43 | 52.30111 | 13.37850 | 3808 ft | 235 kts | 231° |
| 2026-04-17 09:44 | 52.29026 | 13.35832 | 4660 ft | 238 kts | 232° |
| 2026-04-17 09:44 | 52.27931 | 13.33795 | 5527 ft | 239 kts | 232° |
| 2026-04-17 09:44 | 52.26827 | 13.31742 | 6375 ft | 242 kts | 231° |
| 2026-04-17 09:44 | 52.25707 | 13.29659 | 7202 ft | 244 kts | 231° |
| 2026-04-17 09:45 | 52.24610 | 13.27525 | 7967 ft | 246 kts | 238° |
| 2026-04-17 09:45 | 52.23808 | 13.25008 | 8495 ft | 261 kts | 250° |
| 2026-04-17 09:45 | 52.23101 | 13.22163 | 8920 ft | 278 kts | 250° |
| 2026-04-17 09:45 | 52.22370 | 13.19215 | 9645 ft | 283 kts | 250° |
| 2026-04-17 09:46 | 52.21624 | 13.16228 | 10399 ft | 286 kts | 250° |
| 2026-04-17 09:46 | 52.20865 | 13.13202 | 11111 ft | 289 kts | 250° |
| 2026-04-17 09:46 | 52.20098 | 13.10155 | 11837 ft | 293 kts | 250° |
| 2026-04-17 09:46 | 52.19317 | 13.07072 | 12552 ft | 296 kts | 250° |
| 2026-04-17 09:47 | 52.18523 | 13.03957 | 13262 ft | 299 kts | 250° |
| 2026-04-17 09:47 | 52.17720 | 13.00808 | 13982 ft | 302 kts | 251° |
| 2026-04-17 09:47 | 52.16921 | 12.97665 | 14615 ft | 305 kts | 251° |
| 2026-04-17 09:47 | 52.16217 | 12.94399 | 15200 ft | 308 kts | 260° |
| 2026-04-17 09:48 | 52.15714 | 12.90886 | 15335 ft | 328 kts | 261° |
| 2026-04-17 09:48 | 52.15195 | 12.87136 | 15457 ft | 347 kts | 261° |
| 2026-04-17 09:48 | 52.14658 | 12.83254 | 15620 ft | 363 kts | 260° |
| 2026-04-17 09:48 | 52.14087 | 12.79157 | 16078 ft | 369 kts | 260° |
| 2026-04-17 09:49 | 52.13516 | 12.75108 | 16640 ft | 373 kts | 261° |
| 2026-04-17 09:49 | 52.12929 | 12.70982 | 17210 ft | 376 kts | 261° |
| 2026-04-17 09:49 | 52.12332 | 12.66816 | 17777 ft | 379 kts | 261° |
| 2026-04-17 09:49 | 52.11732 | 12.62630 | 18328 ft | 381 kts | 261° |
| 2026-04-17 09:50 | 52.11125 | 12.58395 | 18836 ft | 384 kts | 261° |
| 2026-04-17 09:50 | 52.10518 | 12.54156 | 19300 ft | 387 kts | 261° |
| 2026-04-17 09:50 | 52.09904 | 12.49881 | 19759 ft | 389 kts | 261° |
| 2026-04-17 09:50 | 52.09286 | 12.45587 | 20225 ft | 391 kts | 261° |
| 2026-04-17 09:51 | 52.08659 | 12.41257 | 20697 ft | 394 kts | 261° |
| 2026-04-17 09:51 | 52.08025 | 12.36916 | 21154 ft | 396 kts | 260° |
| 2026-04-17 09:51 | 52.07118 | 12.32647 | 21588 ft | 404 kts | 249° |
| 2026-04-17 09:51 | 52.05726 | 12.28645 | 22047 ft | 411 kts | 239° |
| 2026-04-17 09:52 | 52.04012 | 12.24903 | 22497 ft | 415 kts | 237° |
| 2026-04-17 09:52 | 52.02275 | 12.21141 | 22950 ft | 417 kts | 237° |
| 2026-04-17 09:52 | 52.00533 | 12.17354 | 23219 ft | 419 kts | 237° |
| 2026-04-17 09:52 | 51.98777 | 12.13531 | 23258 ft | 426 kts | 237° |
| 2026-04-17 09:53 | 51.96997 | 12.09659 | 23263 ft | 429 kts | 237° |
| 2026-04-17 09:53 | 51.95210 | 12.05782 | 23259 ft | 430 kts | 237° |
| 2026-04-17 09:53 | 51.93418 | 12.01901 | 23262 ft | 430 kts | 237° |
| 2026-04-17 09:53 | 51.91651 | 11.98073 | 23262 ft | 430 kts | 237° |
| 2026-04-17 09:54 | 51.89859 | 11.94195 | 23264 ft | 430 kts | 237° |
| 2026-04-17 09:54 | 51.88066 | 11.90329 | 23270 ft | 430 kts | 237° |
| 2026-04-17 09:54 | 51.86267 | 11.86462 | 23274 ft | 430 kts | 237° |
| 2026-04-17 09:54 | 51.84468 | 11.82601 | 23268 ft | 430 kts | 237° |
| 2026-04-17 09:55 | 51.82660 | 11.78751 | 23277 ft | 430 kts | 237° |
| 2026-04-17 09:55 | 51.80846 | 11.74919 | 23271 ft | 429 kts | 237° |
| 2026-04-17 09:55 | 51.79026 | 11.71094 | 23265 ft | 429 kts | 236° |
| 2026-04-17 09:55 | 51.77207 | 11.67281 | 23271 ft | 428 kts | 236° |
| 2026-04-17 09:56 | 51.75391 | 11.63476 | 23270 ft | 428 kts | 236° |
| 2026-04-17 09:56 | 51.73571 | 11.59667 | 23270 ft | 428 kts | 236° |
| 2026-04-17 09:56 | 51.71759 | 11.55870 | 23280 ft | 427 kts | 236° |
| 2026-04-17 09:56 | 51.69944 | 11.52072 | 23260 ft | 427 kts | 236° |
| 2026-04-17 09:57 | 51.68148 | 11.48323 | 23236 ft | 427 kts | 236° |
| 2026-04-17 09:57 | 51.66331 | 11.44533 | 23239 ft | 427 kts | 236° |
| 2026-04-17 09:57 | 51.64516 | 11.40744 | 23249 ft | 427 kts | 236° |
| 2026-04-17 09:57 | 51.62698 | 11.36953 | 23241 ft | 427 kts | 236° |
| 2026-04-17 09:58 | 51.60880 | 11.33173 | 23250 ft | 427 kts | 236° |
| 2026-04-17 09:58 | 51.59055 | 11.29391 | 23241 ft | 427 kts | 236° |
| 2026-04-17 09:58 | 51.57228 | 11.25618 | 23236 ft | 427 kts | 236° |
| 2026-04-17 09:58 | 51.55403 | 11.21852 | 23229 ft | 428 kts | 236° |
| 2026-04-17 09:59 | 51.53579 | 11.18082 | 23240 ft | 428 kts | 236° |
| 2026-04-17 09:59 | 51.51752 | 11.14309 | 23240 ft | 428 kts | 236° |
| 2026-04-17 09:59 | 51.49922 | 11.10536 | 23214 ft | 428 kts | 236° |
| 2026-04-17 09:59 | 51.48222 | 11.06652 | 23217 ft | 424 kts | 243° |
| 2026-04-17 10:00 | 51.46784 | 11.02527 | 23225 ft | 423 kts | 245° |
| 2026-04-17 10:00 | 51.45355 | 10.98400 | 23229 ft | 423 kts | 245° |
| 2026-04-17 10:00 | 51.43922 | 10.94278 | 23234 ft | 424 kts | 244° |
| 2026-04-17 10:00 | 51.42450 | 10.90184 | 23236 ft | 426 kts | 240° |
| 2026-04-17 10:01 | 51.40468 | 10.86601 | 23239 ft | 434 kts | 224° |
| 2026-04-17 10:01 | 51.38124 | 10.83542 | 23241 ft | 435 kts | 223° |
| 2026-04-17 10:01 | 51.35763 | 10.80517 | 23240 ft | 435 kts | 222° |
| 2026-04-17 10:01 | 51.33391 | 10.77503 | 23240 ft | 435 kts | 222° |
| 2026-04-17 10:02 | 51.31016 | 10.74494 | 23227 ft | 435 kts | 222° |
| 2026-04-17 10:02 | 51.28645 | 10.71494 | 23229 ft | 435 kts | 222° |
| 2026-04-17 10:02 | 51.26274 | 10.68494 | 23231 ft | 435 kts | 222° |
| 2026-04-17 10:02 | 51.23903 | 10.65491 | 23233 ft | 435 kts | 222° |
| 2026-04-17 10:03 | 51.21526 | 10.62485 | 23230 ft | 436 kts | 222° |
| 2026-04-17 10:03 | 51.19150 | 10.59483 | 23231 ft | 436 kts | 222° |
| 2026-04-17 10:03 | 51.16778 | 10.56485 | 23233 ft | 436 kts | 222° |
| 2026-04-17 10:03 | 51.14436 | 10.53523 | 23231 ft | 436 kts | 222° |
| 2026-04-17 10:04 | 51.12027 | 10.50481 | 23229 ft | 436 kts | 222° |
| 2026-04-17 10:04 | 51.09680 | 10.47524 | 23216 ft | 436 kts | 222° |
| 2026-04-17 10:04 | 51.07297 | 10.44536 | 23225 ft | 435 kts | 222° |
| 2026-04-17 10:04 | 51.04920 | 10.41565 | 23231 ft | 435 kts | 222° |
| 2026-04-17 10:05 | 51.02543 | 10.38595 | 23235 ft | 434 kts | 222° |
| 2026-04-17 10:05 | 51.00170 | 10.35629 | 23236 ft | 433 kts | 222° |
| 2026-04-17 10:05 | 50.97806 | 10.32676 | 23234 ft | 433 kts | 222° |
| 2026-04-17 10:05 | 50.95439 | 10.29719 | 23228 ft | 432 kts | 222° |
| 2026-04-17 10:06 | 50.93075 | 10.26775 | 23225 ft | 432 kts | 222° |
| 2026-04-17 10:06 | 50.90708 | 10.23831 | 23223 ft | 432 kts | 222° |
| 2026-04-17 10:06 | 50.88341 | 10.20892 | 23210 ft | 432 kts | 221° |
| 2026-04-17 10:06 | 50.85973 | 10.17954 | 23210 ft | 432 kts | 221° |
| 2026-04-17 10:07 | 50.83633 | 10.15054 | 23207 ft | 432 kts | 221° |
| 2026-04-17 10:07 | 50.81269 | 10.12124 | 23210 ft | 432 kts | 221° |
| 2026-04-17 10:07 | 50.78905 | 10.09196 | 23209 ft | 432 kts | 221° |
| 2026-04-17 10:07 | 50.76544 | 10.06280 | 23155 ft | 427 kts | 221° |
| 2026-04-17 10:08 | 50.74207 | 10.03399 | 22122 ft | 429 kts | 221° |
| 2026-04-17 10:08 | 50.71875 | 10.00524 | 21604 ft | 420 kts | 221° |
| 2026-04-17 10:08 | 50.69599 | 9.97728 | 21093 ft | 411 kts | 221° |
| 2026-04-17 10:08 | 50.67359 | 9.94981 | 20569 ft | 404 kts | 221° |
| 2026-04-17 10:09 | 50.65154 | 9.92279 | 20063 ft | 398 kts | 221° |
| 2026-04-17 10:09 | 50.62984 | 9.89626 | 19570 ft | 392 kts | 221° |
| 2026-04-17 10:09 | 50.60845 | 9.87017 | 19086 ft | 386 kts | 221° |
| 2026-04-17 10:09 | 50.58730 | 9.84432 | 18595 ft | 382 kts | 220° |
| 2026-04-17 10:10 | 50.56643 | 9.81880 | 18064 ft | 376 kts | 220° |
| 2026-04-17 10:10 | 50.54591 | 9.79374 | 17574 ft | 369 kts | 220° |
| 2026-04-17 10:10 | 50.52580 | 9.76923 | 17089 ft | 363 kts | 220° |
| 2026-04-17 10:11 | 50.48639 | 9.72138 | 16115 ft | 357 kts | 220° |
| 2026-04-17 10:11 | 50.46679 | 9.69764 | 15601 ft | 355 kts | 220° |
| 2026-04-17 10:11 | 50.44733 | 9.67404 | 15109 ft | 352 kts | 220° |
| 2026-04-17 10:11 | 50.42800 | 9.65060 | 14598 ft | 350 kts | 220° |
| 2026-04-17 10:12 | 50.40876 | 9.62729 | 14095 ft | 348 kts | 220° |
| 2026-04-17 10:12 | 50.38973 | 9.60426 | 13541 ft | 345 kts | 220° |
| 2026-04-17 10:12 | 50.37079 | 9.58138 | 13031 ft | 342 kts | 219° |
| 2026-04-17 10:12 | 50.35205 | 9.55879 | 12526 ft | 338 kts | 219° |
| 2026-04-17 10:13 | 50.33349 | 9.53646 | 12024 ft | 335 kts | 219° |
| 2026-04-17 10:13 | 50.31508 | 9.51432 | 11525 ft | 332 kts | 219° |
| 2026-04-17 10:13 | 50.29685 | 9.49242 | 11032 ft | 329 kts | 219° |
| 2026-04-17 10:13 | 50.27907 | 9.47109 | 10890 ft | 314 kts | 219° |
| 2026-04-17 10:14 | 50.26214 | 9.45077 | 10753 ft | 300 kts | 219° |
| 2026-04-17 10:14 | 50.24633 | 9.43013 | 10491 ft | 292 kts | 227° |
| 2026-04-17 10:14 | 50.23394 | 9.40555 | 10244 ft | 287 kts | 239° |
| 2026-04-17 10:14 | 50.22532 | 9.37766 | 10083 ft | 285 kts | 251° |
| 2026-04-17 10:15 | 50.21873 | 9.34851 | 9952 ft | 285 kts | 251° |
| 2026-04-17 10:15 | 50.21207 | 9.31950 | 9821 ft | 284 kts | 251° |
| 2026-04-17 10:15 | 50.20533 | 9.29044 | 9387 ft | 284 kts | 250° |
| 2026-04-17 10:15 | 50.19861 | 9.26147 | 8973 ft | 283 kts | 250° |
| 2026-04-17 10:16 | 50.19196 | 9.23283 | 8518 ft | 280 kts | 250° |
| 2026-04-17 10:16 | 50.18540 | 9.20461 | 8088 ft | 280 kts | 250° |
| 2026-04-17 10:16 | 50.17879 | 9.17615 | 7701 ft | 278 kts | 249° |
| 2026-04-17 10:16 | 50.17221 | 9.14784 | 7345 ft | 276 kts | 249° |
| 2026-04-17 10:17 | 50.16566 | 9.11969 | 6924 ft | 275 kts | 249° |
| 2026-04-17 10:17 | 50.15918 | 9.09183 | 6575 ft | 272 kts | 249° |
| 2026-04-17 10:17 | 50.15272 | 9.06415 | 6154 ft | 271 kts | 249° |
| 2026-04-17 10:17 | 50.14629 | 9.03676 | 5576 ft | 266 kts | 249° |
| 2026-04-17 10:18 | 50.13996 | 9.01016 | 5111 ft | 258 kts | 249° |
| 2026-04-17 10:18 | 50.13402 | 8.98484 | 4915 ft | 241 kts | 249° |
| 2026-04-17 10:18 | 50.12840 | 8.96080 | 4785 ft | 230 kts | 249° |
| 2026-04-17 10:18 | 50.12308 | 8.93807 | 4671 ft | 217 kts | 249° |
| 2026-04-17 10:19 | 50.11805 | 8.91662 | 4551 ft | 204 kts | 249° |
| 2026-04-17 10:19 | 50.11492 | 8.90327 | 4513 ft | 192 kts | 249° |
| 2026-04-17 10:19 | 50.11050 | 8.88443 | 4314 ft | 177 kts | 249° |
| 2026-04-17 10:19 | 50.10644 | 8.86715 | 4104 ft | 164 kts | 249° |
| 2026-04-17 10:20 | 50.10264 | 8.85101 | 3920 ft | 154 kts | 249° |
| 2026-04-17 10:20 | 50.09897 | 8.83541 | 3710 ft | 152 kts | 248° |
| 2026-04-17 10:20 | 50.09532 | 8.81994 | 3506 ft | 152 kts | 248° |
| 2026-04-17 10:20 | 50.09175 | 8.80482 | 3306 ft | 146 kts | 248° |
| 2026-04-17 10:21 | 50.08830 | 8.79016 | 3119 ft | 143 kts | 248° |
| 2026-04-17 10:21 | 50.08487 | 8.77563 | 2921 ft | 142 kts | 248° |
| 2026-04-17 10:21 | 50.08145 | 8.76116 | 2731 ft | 142 kts | 248° |
| 2026-04-17 10:21 | 50.07807 | 8.74689 | 2536 ft | 142 kts | 249° |
| 2026-04-17 10:22 | 50.07466 | 8.73245 | 2356 ft | 142 kts | 249° |
| 2026-04-17 10:22 | 50.07123 | 8.71794 | 2163 ft | 143 kts | 249° |
| 2026-04-17 10:22 | 50.06779 | 8.70342 | 1972 ft | 143 kts | 249° |
| 2026-04-17 10:22 | 50.06435 | 8.68892 | 1781 ft | 143 kts | 249° |
| 2026-04-17 10:23 | 50.06092 | 8.67443 | 1589 ft | 143 kts | 249° |
| 2026-04-17 10:23 | 50.05752 | 8.66010 | 1392 ft | 142 kts | 249° |
| 2026-04-17 10:23 | 50.05409 | 8.64566 | 1206 ft | 142 kts | 250° |
| 2026-04-17 10:23 | 50.05065 | 8.63121 | 1016 ft | 142 kts | 250° |
| 2026-04-17 10:24 | 50.04722 | 8.61678 | 826 ft | 142 kts | 250° |
| 2026-04-17 10:24 | 50.04379 | 8.60236 | 634 ft | 142 kts | 250° |
| 2026-04-17 10:24 | 50.04041 | 8.58801 | 432 ft | 142 kts | 250° |
| 2026-04-17 10:24 | 50.03708 | 8.57398 | 357 ft | 127 kts | 250° |
| 2026-04-17 10:25 | 50.03456 | 8.56350 | 353 ft | 79 kts | 250° |
| 2026-04-17 10:25 | 50.03328 | 8.55802 | 352 ft | 29 kts | 253° |
| 2026-04-17 10:25 | 50.03310 | 8.55524 | 343 ft | 26 kts | 272° |
| 2026-04-17 10:25 | 50.03339 | 8.55271 | 343 ft | 23 kts | 279° |
| 2026-04-17 10:26 | 50.03379 | 8.55025 | 350 ft | 24 kts | 293° |
| 2026-04-17 10:26 | 50.03482 | 8.54848 | 343 ft | 22 kts | 350° |
| 2026-04-17 10:26 | 50.03616 | 8.54753 | 346 ft | 17 kts | 339° |
| 2026-04-17 10:26 | 50.03729 | 8.54714 | 346 ft | 16 kts | 19° |
| 2026-04-17 10:27 | 50.03788 | 8.54861 | 352 ft | 17 kts | 70° |
| 2026-04-17 10:27 | 50.03830 | 8.55036 | 356 ft | 18 kts | 70° |
| 2026-04-17 10:27 | 50.03874 | 8.55222 | 356 ft | 19 kts | 70° |
| 2026-04-17 10:27 | 50.03923 | 8.55423 | 351 ft | 20 kts | 68° |
| 2026-04-17 10:28 | 50.03973 | 8.55635 | 355 ft | 22 kts | 69° |
| 2026-04-17 10:28 | 50.04027 | 8.55865 | 358 ft | 19 kts | 70° |
| 2026-04-17 10:28 | 50.04065 | 8.55962 | 359 ft | 9 kts | 33° |
| 2026-04-17 10:28 | 50.04124 | 8.55953 | 355 ft | 9 kts | 339° |
| 2026-04-17 10:29 | 50.04191 | 8.55921 | 355 ft | 11 kts | 355° |
| 2026-04-17 10:29 | 50.04249 | 8.55978 | 359 ft | 11 kts | 66° |
| 2026-04-17 10:29 | 50.04293 | 8.56071 | 360 ft | 11 kts | 17° |
| 2026-04-17 10:29 | 50.04369 | 8.56040 | 359 ft | 12 kts | 339° |
| 2026-04-17 10:30 | 50.04442 | 8.56071 | 356 ft | 12 kts | 55° |
| 2026-04-17 10:30 | 50.04421 | 8.56145 | 361 ft | 7 kts | 155° |
| 2026-04-17 10:30 | 50.04394 | 8.56165 | 361 ft | 0 kts | 154° |